Time;durP1;ratioP1;P1;durP2;ratioP2;P2;SDS_P1;SDS_P2;PMS_P1;PMS_P2;Temp;Humidity;BMP_temperature;BMP_pressure;BME280_temperature;BME280_humidity;BME280_pressure;Samples;Min_cycle;Max_cycle;Signal;HPM_P1;HPM_P2
2023/11/13 00:00:37;;;;;;;26.80;16.45;;;2.20;99.90;;;;;;5014490;28;20088;-76
2023/11/13 00:03:03;;;;;;;27.63;17.52;;;2.20;99.90;;;;;;5014482;28;20034;-75
2023/11/13 00:05:29;;;;;;;26.58;16.70;;;2.20;99.90;;;;;;5014423;28;20029;-76
2023/11/13 00:07:56;;;;;;;31.02;17.77;;;2.20;99.90;;;;;;5013910;28;20038;-76
2023/11/13 00:10:22;;;;;;;32.83;18.27;;;2.20;99.90;;;;;;5014206;28;20026;-76
2023/11/13 00:12:48;;;;;;;38.78;18.23;;;2.10;99.90;;;;;;5013577;28;20121;-76
2023/11/13 00:15:13;;;;;;;33.33;17.98;;;2.10;99.90;;;;;;5013704;28;20112;-76
2023/11/13 00:17:39;;;;;;;33.33;18.85;;;2.20;99.90;;;;;;5014055;28;20490;-76
2023/11/13 00:20:06;;;;;;;34.42;16.38;;;2.30;99.90;;;;;;5014368;28;20049;-77
2023/11/13 00:22:31;;;;;;;32.15;16.55;;;2.30;99.90;;;;;;5013913;28;20026;-77
2023/11/13 00:24:58;;;;;;;28.90;15.80;;;2.40;99.90;;;;;;5014392;28;20037;-77
2023/11/13 00:27:24;;;;;;;28.38;15.10;;;2.40;99.90;;;;;;5013984;28;20026;-76
2023/11/13 00:29:50;;;;;;;28.30;15.30;;;2.50;99.90;;;;;;5014162;28;20373;-77
2023/11/13 00:32:16;;;;;;;31.17;17.48;;;2.50;99.90;;;;;;5013338;28;20040;-76
2023/11/13 00:34:41;;;;;;;35.63;16.13;;;2.60;99.90;;;;;;5013725;28;20026;-76
2023/11/13 00:37:07;;;;;;;28.13;16.30;;;2.70;99.90;;;;;;5012844;28;20026;-75
2023/11/13 00:39:33;;;;;;;29.13;14.63;;;2.70;99.90;;;;;;5014130;28;20038;-76
2023/11/13 00:41:59;;;;;;;30.63;14.82;;;2.70;99.90;;;;;;5013736;28;20029;-76
2023/11/13 00:44:25;;;;;;;20.52;14.00;;;2.70;99.90;;;;;;5013589;28;20380;-76
2023/11/13 00:46:51;;;;;;;28.33;14.55;;;2.60;99.90;;;;;;5013834;28;20112;-77
2023/11/13 00:49:17;;;;;;;24.50;13.48;;;2.60;99.90;;;;;;5014091;28;20026;-77
2023/11/13 00:51:43;;;;;;;25.98;14.10;;;2.50;99.90;;;;;;5013501;28;20026;-77
2023/11/13 00:54:09;;;;;;;21.77;13.85;;;2.50;99.90;;;;;;5013860;28;20068;-77
2023/11/13 00:56:35;;;;;;;27.40;13.43;;;2.50;99.90;;;;;;5013128;28;20112;-77
2023/11/13 00:59:01;;;;;;;23.65;13.07;;;2.50;99.90;;;;;;5013942;28;20504;-77
2023/11/13 01:01:27;;;;;;;24.88;13.77;;;2.50;99.90;;;;;;5013509;28;20030;-77
2023/11/13 01:03:52;;;;;;;28.35;14.02;;;2.60;99.90;;;;;;5014785;28;20371;-77
2023/11/13 01:06:18;;;;;;;23.13;14.02;;;2.60;99.90;;;;;;5016663;28;20038;-77
2023/11/13 01:08:44;;;;;;;26.58;14.88;;;2.60;99.90;;;;;;5017039;28;20030;-77
2023/11/13 01:11:11;;;;;;;29.23;15.27;;;2.50;99.90;;;;;;5017331;28;20095;-77
2023/11/13 01:13:37;;;;;;;27.83;14.65;;;2.50;99.90;;;;;;5016950;28;20365;-77
2023/11/13 01:16:04;;;;;;;26.30;14.15;;;2.50;99.90;;;;;;5016392;28;20032;-77
2023/11/13 01:18:30;;;;;;;31.58;14.68;;;2.40;99.90;;;;;;5016972;28;20050;-77
2023/11/13 01:20:56;;;;;;;25.92;13.40;;;2.50;99.90;;;;;;5017251;28;20574;-77
2023/11/13 01:23:22;;;;;;;24.17;14.70;;;2.40;99.90;;;;;;5016937;28;20057;-77
2023/11/13 01:25:48;;;;;;;31.20;14.85;;;2.50;99.90;;;;;;5016821;28;20575;-77
2023/11/13 01:28:16;;;;;;;27.73;14.48;;;2.60;99.90;;;;;;5016734;28;20018;-77
2023/11/13 01:30:42;;;;;;;32.80;15.52;;;2.70;99.90;;;;;;5016147;28;20022;-77
2023/11/13 01:33:08;;;;;;;29.48;15.80;;;2.70;99.90;;;;;;5016178;28;20089;-77
2023/11/13 01:35:34;;;;;;;34.40;15.50;;;2.80;99.90;;;;;;5016867;28;20108;-77
2023/11/13 01:37:59;;;;;;;34.63;15.32;;;2.80;99.90;;;;;;5016311;28;20117;-77
2023/11/13 01:40:25;;;;;;;29.63;16.02;;;2.80;99.90;;;;;;5016032;28;20022;-77
2023/11/13 01:42:51;;;;;;;32.78;16.60;;;2.80;99.90;;;;;;5016581;28;20034;-77
2023/11/13 01:45:17;;;;;;;34.38;17.25;;;2.90;99.90;;;;;;5015840;28;20156;-77
2023/11/13 01:47:45;;;;;;;27.73;15.68;;;2.90;99.90;;;;;;5016338;28;20034;-77
2023/11/13 01:50:12;;;;;;;27.67;14.98;;;3.00;99.90;;;;;;5016661;28;20033;-76
2023/11/13 01:52:38;;;;;;;27.17;15.57;;;3.10;99.90;;;;;;5015911;28;20045;-77
2023/11/13 01:55:04;;;;;;;31.08;14.90;;;3.10;99.90;;;;;;5016626;28;20353;-78
2023/11/13 01:57:31;;;;;;;25.48;13.90;;;3.10;99.90;;;;;;5015415;28;20041;-77
2023/11/13 01:59:58;;;;;;;25.52;13.57;;;3.10;99.90;;;;;;5016178;28;20109;-77
2023/11/13 02:02:25;;;;;;;28.45;13.00;;;3.10;99.90;;;;;;5015854;28;20033;-77
2023/11/13 02:04:51;;;;;;;25.60;14.07;;;3.10;99.90;;;;;;5016149;28;20033;-78
2023/11/13 02:07:17;;;;;;;27.02;12.98;;;3.10;99.90;;;;;;5015984;28;20034;-78
2023/11/13 02:09:43;;;;;;;28.45;13.82;;;3.10;99.90;;;;;;5015397;28;20038;-76
2023/11/13 02:12:09;;;;;;;25.17;14.40;;;3.10;99.90;;;;;;5015940;28;20121;-75
2023/11/13 02:14:36;;;;;;;29.08;12.82;;;3.10;99.90;;;;;;5016132;28;20033;-76
2023/11/13 02:17:03;;;;;;;31.88;13.02;;;3.10;99.90;;;;;;5015481;28;20033;-77
2023/11/13 02:19:29;;;;;;;25.65;12.82;;;3.20;99.90;;;;;;5016026;28;20021;-77
2023/11/13 02:21:54;;;;;;;29.50;13.20;;;3.20;99.90;;;;;;5015793;28;20026;-77
2023/11/13 02:24:21;;;;;;;24.80;12.40;;;3.30;99.90;;;;;;5015672;28;20369;-77
2023/11/13 02:26:47;;;;;;;25.10;12.07;;;3.30;99.90;;;;;;5015546;28;20503;-77
2023/11/13 02:29:13;;;;;;;27.02;11.95;;;3.40;99.90;;;;;;5015914;28;20057;-77
2023/11/13 02:31:55;;;;;;;29.17;13.90;;;3.40;99.90;;;;;;5015448;28;20034;-77
2023/11/13 02:34:22;;;;;;;22.77;11.60;;;3.50;99.90;;;;;;5015862;28;20025;-77
2023/11/13 02:36:50;;;;;;;25.52;12.45;;;3.50;99.90;;;;;;5015507;28;20026;-77
2023/11/13 02:39:17;;;;;;;23.17;11.95;;;3.50;99.90;;;;;;5015394;28;20499;-76
2023/11/13 02:41:45;;;;;;;23.48;12.00;;;3.60;99.90;;;;;;5014905;28;20030;-77
2023/11/13 02:44:11;;;;;;;28.08;12.27;;;3.60;99.90;;;;;;5014966;28;20030;-77
2023/11/13 02:46:37;;;;;;;22.73;11.77;;;3.60;99.90;;;;;;5015101;28;20033;-77
2023/11/13 02:49:02;;;;;;;19.63;10.52;;;3.60;99.90;;;;;;5014933;28;20022;-77
2023/11/13 02:51:28;;;;;;;24.27;11.52;;;3.60;99.90;;;;;;5015536;28;20030;-77
2023/11/13 02:53:55;;;;;;;24.42;11.60;;;3.50;99.90;;;;;;5015220;28;20088;-78
2023/11/13 02:56:20;;;;;;;26.08;11.65;;;3.60;99.90;;;;;;5014909;28;20101;-77
2023/11/13 02:58:47;;;;;;;25.60;11.75;;;3.50;99.90;;;;;;5015209;28;20037;-77
2023/11/13 03:01:15;;;;;;;25.35;11.23;;;3.60;99.90;;;;;;5014918;28;20026;-77
2023/11/13 03:03:43;;;;;;;24.15;10.63;;;3.70;99.90;;;;;;5015151;28;20116;-76
2023/11/13 03:06:08;;;;;;;25.67;11.10;;;3.70;99.90;;;;;;5015084;28;20034;-77
2023/11/13 03:08:34;;;;;;;23.17;11.88;;;3.70;99.90;;;;;;5014926;28;20026;-76
2023/11/13 03:11:00;;;;;;;22.52;12.00;;;3.80;99.90;;;;;;5014902;28;20030;-77
2023/11/13 03:13:25;;;;;;;24.73;11.55;;;3.80;99.90;;;;;;5014502;28;20109;-77
2023/11/13 03:15:51;;;;;;;24.27;12.40;;;3.80;99.90;;;;;;5015138;28;20388;-76
2023/11/13 03:18:18;;;;;;;22.42;11.57;;;3.80;99.90;;;;;;5014748;28;20025;-77
2023/11/13 03:20:44;;;;;;;22.90;10.85;;;3.80;99.90;;;;;;5014721;28;20033;-77
2023/11/13 03:23:12;;;;;;;19.08;10.82;;;3.80;99.90;;;;;;5014841;28;20026;-76
2023/11/13 03:25:38;;;;;;;19.25;11.93;;;3.80;99.90;;;;;;5013764;28;20026;-77
2023/11/13 03:28:04;;;;;;;27.25;11.93;;;3.80;99.90;;;;;;5013862;28;20025;-76
2023/11/13 03:30:32;;;;;;;27.88;12.07;;;3.80;99.90;;;;;;5013813;28;20548;-77
2023/11/13 03:32:58;;;;;;;18.48;10.85;;;3.80;99.90;;;;;;5014284;28;20060;-76
2023/11/13 03:35:24;;;;;;;24.63;11.15;;;3.80;99.90;;;;;;5014435;28;20076;-76
2023/11/13 03:37:50;;;;;;;19.33;10.73;;;3.80;99.90;;;;;;5014240;28;20026;-76
2023/11/13 03:40:15;;;;;;;17.85;10.38;;;3.80;99.90;;;;;;5014928;28;20429;-77
2023/11/13 03:42:41;;;;;;;21.75;11.07;;;3.80;99.90;;;;;;5014430;28;20022;-76
2023/11/13 03:45:07;;;;;;;22.85;10.57;;;3.80;99.90;;;;;;5013688;28;20057;-77
2023/11/13 03:47:33;;;;;;;24.10;11.48;;;3.80;99.90;;;;;;5014141;28;20044;-76
2023/11/13 03:49:59;;;;;;;19.95;10.68;;;3.80;99.90;;;;;;5013785;28;20113;-76
2023/11/13 03:52:25;;;;;;;25.30;11.90;;;3.80;99.90;;;;;;5014084;28;20075;-76
2023/11/13 03:54:50;;;;;;;21.30;10.85;;;3.80;99.90;;;;;;5014467;28;20109;-76
2023/11/13 03:57:16;;;;;;;21.48;11.77;;;3.80;99.90;;;;;;5013467;28;20042;-77
2023/11/13 03:59:42;;;;;;;22.80;11.52;;;3.80;99.90;;;;;;5013619;28;20025;-77
2023/11/13 04:02:07;;;;;;;24.20;11.57;;;3.80;99.90;;;;;;5014131;28;20026;-77
2023/11/13 04:04:33;;;;;;;21.33;10.65;;;3.80;99.90;;;;;;5014452;28;20112;-77
2023/11/13 04:06:59;;;;;;;19.73;10.57;;;3.80;99.90;;;;;;5013405;28;20025;-77
2023/11/13 04:09:24;;;;;;;20.05;10.43;;;3.80;99.90;;;;;;5013641;28;20026;-77
2023/11/13 04:11:50;;;;;;;18.77;10.38;;;3.70;99.90;;;;;;5013855;28;20026;-77
2023/11/13 04:14:17;;;;;;;21.73;10.55;;;3.80;99.90;;;;;;5013943;28;20145;-76
2023/11/13 04:16:42;;;;;;;17.52;10.60;;;3.80;99.90;;;;;;5013998;28;20036;-77
2023/11/13 04:19:08;;;;;;;16.85;9.40;;;3.80;99.90;;;;;;5014130;28;20112;-77
2023/11/13 04:21:34;;;;;;;17.10;10.32;;;3.80;99.90;;;;;;5014069;28;20061;-77
2023/11/13 04:24:00;;;;;;;24.13;11.10;;;3.80;99.90;;;;;;5013584;28;20498;-77
2023/11/13 04:26:26;;;;;;;21.13;10.90;;;3.80;99.90;;;;;;5013056;28;20069;-76
2023/11/13 04:28:53;;;;;;;16.85;10.18;;;3.80;99.90;;;;;;5014167;28;20060;-77
2023/11/13 04:31:19;;;;;;;20.38;10.18;;;3.80;99.90;;;;;;5014062;28;20384;-77
2023/11/13 04:33:45;;;;;;;22.05;10.35;;;3.90;99.90;;;;;;5014034;28;20120;-77
2023/11/13 04:36:11;;;;;;;17.40;10.23;;;3.90;99.90;;;;;;5014175;28;20109;-76
2023/11/13 04:38:37;;;;;;;18.88;10.23;;;3.90;99.90;;;;;;5014446;28;20076;-76
2023/11/13 04:41:04;;;;;;;19.38;10.95;;;3.90;99.90;;;;;;5017286;28;20025;-77
2023/11/13 04:43:30;;;;;;;23.20;10.90;;;3.90;99.90;;;;;;5017366;28;20061;-77
2023/11/13 04:45:55;;;;;;;25.20;11.25;;;4.00;99.90;;;;;;5018137;28;20061;-77
2023/11/13 04:48:21;;;;;;;23.05;10.95;;;4.00;99.90;;;;;;5016949;28;20033;-77
2023/11/13 04:50:48;;;;;;;20.67;10.20;;;4.00;99.90;;;;;;5017369;28;20018;-77
2023/11/13 04:53:13;;;;;;;16.55;10.75;;;4.00;99.90;;;;;;5017405;28;20542;-77
2023/11/13 04:55:39;;;;;;;20.60;11.18;;;4.00;99.90;;;;;;5017656;28;20022;-77
2023/11/13 04:58:05;;;;;;;21.83;10.35;;;4.10;99.90;;;;;;5016538;28;20057;-77
2023/11/13 05:00:30;;;;;;;19.23;11.18;;;4.10;99.90;;;;;;5017145;28;20526;-77
2023/11/13 05:02:56;;;;;;;19.17;10.50;;;4.10;99.90;;;;;;5017252;28;20053;-77
2023/11/13 05:05:22;;;;;;;19.65;10.70;;;4.20;99.90;;;;;;5017271;28;20092;-77
2023/11/13 05:07:48;;;;;;;18.80;10.88;;;4.20;99.90;;;;;;5017530;28;20033;-77
2023/11/13 05:10:13;;;;;;;19.00;10.88;;;4.20;99.90;;;;;;5016980;28;20076;-77
2023/11/13 05:12:39;;;;;;;20.38;10.77;;;4.30;99.90;;;;;;5017369;28;20132;-77
2023/11/13 05:15:05;;;;;;;21.00;10.77;;;4.30;99.90;;;;;;5017114;28;20472;-77
2023/11/13 05:17:32;;;;;;;19.35;10.60;;;4.30;99.90;;;;;;5016772;28;20061;-76
2023/11/13 05:19:59;;;;;;;19.55;10.30;;;4.30;99.90;;;;;;5016260;28;20034;-77
2023/11/13 05:22:24;;;;;;;18.83;10.40;;;4.30;99.90;;;;;;5016932;28;20026;-77
2023/11/13 05:24:50;;;;;;;17.70;10.95;;;4.40;99.90;;;;;;5016879;28;20364;-77
2023/11/13 05:27:16;;;;;;;21.52;11.35;;;4.40;99.90;;;;;;5016837;28;20103;-77
2023/11/13 05:29:41;;;;;;;21.35;11.00;;;4.40;99.90;;;;;;5016814;28;20044;-77
2023/11/13 05:32:08;;;;;;;16.95;10.98;;;4.40;99.90;;;;;;5017163;28;20439;-77
2023/11/13 05:34:33;;;;;;;21.10;11.32;;;4.50;99.90;;;;;;5015794;28;20022;-77
2023/11/13 05:36:59;;;;;;;18.55;10.93;;;4.50;99.90;;;;;;5016858;28;20034;-77
2023/11/13 05:39:25;;;;;;;17.15;10.90;;;4.50;99.90;;;;;;5015930;28;20361;-77
2023/11/13 05:41:50;;;;;;;17.25;10.73;;;4.60;99.90;;;;;;5016732;28;20025;-77
2023/11/13 05:44:16;;;;;;;17.40;10.68;;;4.60;99.90;;;;;;5016547;28;20101;-77
2023/11/13 05:46:41;;;;;;;21.50;11.48;;;4.60;99.90;;;;;;5016494;28;20029;-77
2023/11/13 05:49:07;;;;;;;19.08;10.68;;;4.60;99.90;;;;;;5016137;28;20032;-77
2023/11/13 05:51:33;;;;;;;19.17;11.60;;;4.70;99.90;;;;;;5015536;28;20026;-77
2023/11/13 05:53:58;;;;;;;16.95;10.77;;;4.70;99.90;;;;;;5016057;28;20033;-77
2023/11/13 05:56:24;;;;;;;17.52;10.35;;;4.70;99.90;;;;;;5015263;28;20486;-77
2023/11/13 05:58:49;;;;;;;18.60;9.75;;;4.80;99.90;;;;;;5016232;28;20037;-77
2023/11/13 06:01:18;;;;;;;17.63;10.05;;;4.80;99.90;;;;;;5016289;28;20456;-77
2023/11/13 06:03:43;;;;;;;21.77;10.05;;;4.90;99.90;;;;;;5015852;28;20021;-77
2023/11/13 06:06:16;;;;;;;21.73;10.10;;;4.90;99.90;;;;;;5016497;28;20041;-77
2023/11/13 06:08:44;;;;;;;20.80;9.90;;;4.90;99.90;;;;;;5016130;28;20502;-77
2023/11/13 06:11:10;;;;;;;15.32;9.50;;;4.90;99.90;;;;;;5016132;28;20513;-77
2023/11/13 06:13:36;;;;;;;14.23;9.85;;;4.90;99.90;;;;;;5016181;28;20022;-77
2023/11/13 06:16:02;;;;;;;17.88;9.98;;;5.00;99.90;;;;;;5015866;28;20473;-77
2023/11/13 06:18:28;;;;;;;28.00;9.88;;;5.00;99.90;;;;;;5016228;28;20452;-77
2023/11/13 06:20:54;;;;;;;13.77;9.63;;;5.00;99.90;;;;;;5016214;28;20080;-77
2023/11/13 06:23:23;;;;;;;12.20;9.27;;;5.00;99.90;;;;;;5016169;28;20022;-77
2023/11/13 06:25:49;;;;;;;17.67;8.60;;;5.10;99.90;;;;;;5016013;28;20022;-77
2023/11/13 06:28:15;;;;;;;14.07;8.68;;;5.10;99.90;;;;;;5015871;28;20109;-77
2023/11/13 06:30:43;;;;;;;17.23;8.98;;;5.10;99.90;;;;;;5015716;28;20113;-77
2023/11/13 06:33:10;;;;;;;16.25;9.05;;;5.10;99.90;;;;;;5015252;28;20029;-77
2023/11/13 06:35:35;;;;;;;12.27;8.10;;;5.10;99.90;;;;;;5015401;28;20506;-77
2023/11/13 06:38:01;;;;;;;16.17;8.40;;;5.20;99.90;;;;;;5015255;28;20055;-77
2023/11/13 06:40:27;;;;;;;16.98;9.60;;;5.20;99.90;;;;;;5015536;28;20033;-77
2023/11/13 06:42:52;;;;;;;16.90;10.43;;;5.20;99.90;;;;;;5015362;28;20037;-77
2023/11/13 06:45:18;;;;;;;17.95;9.40;;;5.20;99.90;;;;;;5014983;28;20026;-77
2023/11/13 06:47:50;;;;;;;18.65;10.82;;;5.20;99.90;;;;;;5015178;28;20053;-76
2023/11/13 06:50:17;;;;;;;17.65;9.63;;;5.20;99.90;;;;;;5015410;28;20085;-76
2023/11/13 06:52:42;;;;;;;18.83;10.43;;;5.20;99.90;;;;;;5015589;28;20041;-76
2023/11/13 06:55:13;;;;;;;17.65;10.43;;;5.20;99.90;;;;;;5014946;28;20468;-76
2023/11/13 06:57:41;;;;;;;24.02;11.20;;;5.20;99.90;;;;;;5014447;28;20101;-77
2023/11/13 07:00:08;;;;;;;19.95;10.95;;;5.30;99.90;;;;;;5015167;28;20049;-77
2023/11/13 07:02:39;;;;;;;22.05;11.52;;;5.30;99.90;;;;;;5013447;28;20049;-77
2023/11/13 07:05:06;;;;;;;22.50;11.90;;;5.30;99.90;;;;;;5011487;28;20025;-76
2023/11/13 07:07:32;;;;;;;20.70;11.63;;;5.30;99.90;;;;;;5013730;28;20033;-75
2023/11/13 07:10:01;;;;;;;20.05;13.02;;;5.30;99.90;;;;;;5015305;28;20029;-75
2023/11/13 07:12:29;;;;;;;20.67;12.27;;;5.30;99.90;;;;;;5012659;28;20089;-76
2023/11/13 07:14:55;;;;;;;25.58;12.93;;;5.30;99.90;;;;;;5013696;28;20038;-75
2023/11/13 07:17:21;;;;;;;23.30;13.35;;;5.40;99.90;;;;;;5013705;28;20041;-75
2023/11/13 07:19:47;;;;;;;24.13;13.68;;;5.40;99.90;;;;;;5014486;28;20064;-76
2023/11/13 07:22:13;;;;;;;24.23;14.18;;;5.40;99.90;;;;;;5014075;28;20104;-75
2023/11/13 07:24:39;;;;;;;21.67;14.85;;;5.40;99.90;;;;;;5012305;28;20087;-75
2023/11/13 07:27:05;;;;;;;23.85;15.43;;;5.50;99.90;;;;;;5012696;28;20220;-75
2023/11/13 07:29:31;;;;;;;26.90;14.48;;;5.50;99.90;;;;;;5010732;28;20121;-77
2023/11/13 07:31:57;;;;;;;22.33;14.27;;;5.50;99.90;;;;;;5006409;28;20510;-76
2023/11/13 07:34:23;;;;;;;23.55;14.32;;;5.60;99.90;;;;;;5010878;28;20510;-77
2023/11/13 07:36:49;;;;;;;27.02;14.57;;;5.60;99.90;;;;;;5013592;28;20026;-78
2023/11/13 07:39:15;;;;;;;28.50;15.73;;;5.60;99.90;;;;;;5011852;28;20037;-76
2023/11/13 07:41:41;;;;;;;27.75;14.15;;;5.60;99.90;;;;;;5011844;28;20032;-76
2023/11/13 07:44:06;;;;;;;22.35;13.90;;;5.70;99.90;;;;;;5013304;28;20049;-75
2023/11/13 07:46:33;;;;;;;28.73;15.43;;;5.70;99.90;;;;;;5012934;28;20084;-75
2023/11/13 07:48:59;;;;;;;28.75;16.38;;;5.70;99.90;;;;;;5013148;28;20030;-74
2023/11/13 07:51:26;;;;;;;21.40;14.80;;;5.80;99.90;;;;;;5013139;28;20032;-74
2023/11/13 07:53:52;;;;;;;26.30;15.70;;;5.80;99.90;;;;;;5010073;28;20026;-77
2023/11/13 07:56:19;;;;;;;25.70;15.38;;;5.80;99.90;;;;;;5011963;28;20467;-75
2023/11/13 07:58:45;;;;;;;27.25;15.10;;;5.90;99.90;;;;;;5013312;28;20088;-77
2023/11/13 08:01:11;;;;;;;29.88;14.90;;;5.90;99.90;;;;;;5012539;28;20033;-77
2023/11/13 08:03:37;;;;;;;20.63;13.98;;;6.00;99.90;;;;;;5013656;28;20021;-78
2023/11/13 08:06:03;;;;;;;29.50;15.57;;;6.00;99.90;;;;;;5010832;28;20088;-74
2023/11/13 08:08:29;;;;;;;26.90;15.43;;;6.00;99.90;;;;;;5009983;28;20446;-74
2023/11/13 08:10:56;;;;;;;23.35;15.48;;;6.00;99.90;;;;;;5006064;28;20034;-74
2023/11/13 08:13:24;;;;;;;25.17;14.68;;;6.10;99.90;;;;;;5012605;28;20017;-76
2023/11/13 08:15:50;;;;;;;27.77;15.95;;;6.10;99.90;;;;;;5013881;28;20036;-77
2023/11/13 08:18:16;;;;;;;26.20;15.30;;;6.20;99.90;;;;;;5014080;28;20500;-76
2023/11/13 08:20:45;;;;;;;22.83;14.60;;;6.20;99.90;;;;;;5013944;28;20453;-75
2023/11/13 08:23:13;;;;;;;25.70;14.10;;;6.20;99.90;;;;;;5011862;28;20061;-75
2023/11/13 08:25:42;;;;;;;31.52;17.63;;;6.30;99.90;;;;;;5011583;28;20117;-75
2023/11/13 08:28:09;;;;;;;26.67;15.98;;;6.30;99.90;;;;;;5013351;28;20030;-77
2023/11/13 08:30:36;;;;;;;27.67;15.75;;;6.40;99.90;;;;;;5011754;28;20029;-80
2023/11/13 08:33:03;;;;;;;26.85;15.77;;;6.50;99.90;;;;;;5015792;28;20068;-79
2023/11/13 08:35:31;;;;;;;27.15;15.57;;;6.50;99.90;;;;;;5016626;28;20070;-81
2023/11/13 08:37:58;;;;;;;28.05;16.00;;;6.60;99.90;;;;;;5015662;28;20029;-83
2023/11/13 08:40:23;;;;;;;24.92;14.27;;;6.60;99.90;;;;;;5013920;28;20036;-81
2023/11/13 08:42:50;;;;;;;23.00;14.23;;;6.60;99.90;;;;;;5015766;28;20410;-82
2023/11/13 08:45:16;;;;;;;27.60;15.18;;;6.70;99.90;;;;;;5015761;28;20029;-82
2023/11/13 08:47:45;;;;;;;25.77;15.25;;;6.80;99.90;;;;;;5015977;28;20053;-83
2023/11/13 08:50:11;;;;;;;28.73;14.23;;;6.80;99.90;;;;;;5013738;28;20037;-83
2023/11/13 08:52:40;;;;;;;23.80;14.63;;;6.80;99.90;;;;;;5015625;28;20088;-83
2023/11/13 08:55:10;;;;;;;22.20;14.05;;;6.90;99.90;;;;;;5015656;28;20034;-82
2023/11/13 08:57:38;;;;;;;21.48;13.05;;;6.90;99.90;;;;;;5009046;28;20068;-82
2023/11/13 09:00:05;;;;;;;21.05;13.15;;;7.00;99.90;;;;;;5012448;28;20503;-82
2023/11/13 09:02:30;;;;;;;23.35;13.52;;;7.00;99.90;;;;;;5014672;28;20033;-82
2023/11/13 09:04:56;;;;;;;27.02;13.88;;;7.10;99.90;;;;;;5014977;28;20464;-81
2023/11/13 09:07:23;;;;;;;23.23;13.73;;;7.20;99.90;;;;;;5016228;28;20030;-81
2023/11/13 09:09:54;;;;;;;21.80;13.05;;;7.30;99.90;;;;;;5015307;28;20038;-82
2023/11/13 09:12:20;;;;;;;22.98;13.25;;;7.30;99.90;;;;;;5014878;28;20040;-83
2023/11/13 09:14:47;;;;;;;25.67;13.68;;;7.40;99.90;;;;;;5015633;28;20089;-83
2023/11/13 09:17:13;;;;;;;22.63;13.10;;;7.50;99.90;;;;;;5011621;28;20471;-81
2023/11/13 09:19:41;;;;;;;24.27;12.95;;;7.50;99.90;;;;;;5004166;28;20054;-80
2023/11/13 09:22:09;;;;;;;20.30;11.30;;;7.60;99.90;;;;;;4998592;28;20025;-81
2023/11/13 09:24:38;;;;;;;20.17;12.60;;;7.60;99.90;;;;;;5012350;28;20396;-83
2023/11/13 09:27:09;;;;;;;20.77;12.38;;;7.60;99.90;;;;;;5007524;28;20057;-82
2023/11/13 09:29:38;;;;;;;19.27;11.95;;;7.60;99.90;;;;;;5008764;28;20040;-81
2023/11/13 09:32:07;;;;;;;20.35;11.27;;;7.70;99.90;;;;;;5016117;28;20037;-84
2023/11/13 09:34:33;;;;;;;24.83;12.18;;;7.70;99.90;;;;;;5018541;28;20030;-82
2023/11/13 09:36:59;;;;;;;23.08;12.23;;;7.80;99.90;;;;;;5016941;28;20030;-83
2023/11/13 09:39:32;;;;;;;22.38;11.80;;;7.90;99.90;;;;;;5014879;28;20030;-84
2023/11/13 09:42:03;;;;;;;;;;;8.00;99.90;;;;;;5007959;28;20022;-81
2023/11/13 09:44:31;;;;;;;21.60;11.98;;;8.10;99.90;;;;;;5012220;28;19910;-81
2023/11/13 09:46:59;;;;;;;22.55;10.60;;;8.20;99.90;;;;;;5014692;28;20030;-79
2023/11/13 09:49:29;;;;;;;18.85;9.15;;;8.40;99.90;;;;;;5016768;28;20535;-80
2023/11/13 09:51:59;;;;;;;21.15;9.35;;;8.50;99.90;;;;;;4998860;28;20085;-78
2023/11/13 09:54:28;;;;;;;18.23;8.48;;;8.80;99.90;;;;;;5014346;28;20052;-82
2023/11/13 09:56:56;;;;;;;14.18;7.93;;;8.90;99.90;;;;;;5015361;28;20416;-80
2023/11/13 09:59:24;;;;;;;14.05;6.80;;;9.00;99.90;;;;;;5008705;28;20280;-80
2023/11/13 10:01:50;;;;;;;14.73;5.70;;;9.20;99.90;;;;;;5009685;28;20033;-78
2023/11/13 10:04:16;;;;;;;13.18;5.75;;;9.30;99.90;;;;;;5014836;28;20468;-80
2023/11/13 10:06:52;;;;;;;15.15;6.00;;;9.30;99.90;;;;;;5017225;28;20033;-81
2023/11/13 10:09:22;;;;;;;13.23;5.57;;;9.30;99.90;;;;;;5015407;28;20030;-78
2023/11/13 10:11:49;;;;;;;13.27;5.43;;;9.30;99.90;;;;;;5014710;28;20097;-79
2023/11/13 10:14:17;;;;;;;14.07;5.63;;;9.30;99.90;;;;;;5015588;28;20034;-78
2023/11/13 10:17:00;;;;;;;9.82;5.10;;;9.40;99.90;;;;;;5013879;28;20038;-81
2023/11/13 10:19:27;;;;;;;9.82;4.75;;;9.40;99.90;;;;;;5014835;28;20103;-82
2023/11/13 10:21:55;;;;;;;12.18;4.75;;;9.40;99.90;;;;;;5015053;28;20041;-84
2023/11/13 10:24:23;;;;;;;10.32;4.38;;;9.40;99.90;;;;;;5013976;28;20483;-79
2023/11/13 10:26:51;;;;;;;10.90;4.55;;;9.40;99.90;;;;;;5011721;28;20046;-76
2023/11/13 10:29:25;;;;;;;6.10;4.32;;;9.40;99.90;;;;;;5013888;28;20527;-77
2023/11/13 10:31:52;;;;;;;8.20;4.30;;;9.40;99.90;;;;;;5009390;28;20022;-79
2023/11/13 10:34:20;;;;;;;8.65;4.07;;;9.40;99.90;;;;;;5013273;28;20037;-78
2023/11/13 10:37:10;;;;;;;10.40;4.50;;;9.40;99.90;;;;;;5010878;28;20033;-79
2023/11/13 10:39:37;;;;;;;7.22;3.80;;;9.50;99.90;;;;;;5013183;28;20033;-79
2023/11/13 10:42:05;;;;;;;7.15;4.03;;;9.50;99.90;;;;;;5013996;28;20029;-78
2023/11/13 10:44:37;;;;;;;8.10;3.55;;;9.50;99.90;;;;;;5012684;28;20038;-79
2023/11/13 10:47:23;;;;;;;5.53;2.97;;;9.60;99.90;;;;;;5011839;28;20510;-77
2023/11/13 10:49:51;;;;;;;4.88;2.55;;;9.60;99.90;;;;;;5012637;28;20052;-80
2023/11/13 10:52:18;;;;;;;7.45;3.67;;;9.60;99.90;;;;;;5012468;28;20026;-79
2023/11/13 10:54:48;;;;;;;7.68;2.92;;;9.60;99.90;;;;;;5012900;28;20480;-80
2023/11/13 10:57:15;;;;;;;5.30;2.10;;;9.60;99.90;;;;;;5007203;28;20046;-79
2023/11/13 10:59:40;;;;;;;7.55;2.60;;;9.60;99.90;;;;;;5011358;28;20115;-80
2023/11/13 11:02:21;;;;;;;5.72;1.92;;;9.70;99.90;;;;;;5011806;28;20030;-80
2023/11/13 11:04:52;;;;;;;4.47;2.10;;;9.70;99.90;;;;;;5012086;28;20549;-80
2023/11/13 11:07:23;;;;;;;4.07;2.00;;;9.70;99.90;;;;;;5011541;28;20108;-80
2023/11/13 11:09:51;;;;;;;4.40;1.92;;;9.70;99.90;;;;;;5008532;28;20041;-77
2023/11/13 11:12:18;;;;;;;6.32;2.17;;;9.70;99.90;;;;;;5012590;28;20022;-79
2023/11/13 11:14:59;;;;;;;4.68;1.92;;;9.70;99.90;;;;;;5011597;28;20025;-78
2023/11/13 11:17:33;;;;;;;4.75;2.15;;;9.70;99.90;;;;;;5011246;28;20065;-79
2023/11/13 11:20:07;;;;;;;6.22;2.40;;;9.70;99.90;;;;;;5012324;28;20037;-78
2023/11/13 11:22:42;;;;;;;6.60;2.50;;;9.70;99.90;;;;;;5012248;28;20040;-79
2023/11/13 11:25:29;;;;;;;5.22;1.90;;;9.70;99.90;;;;;;5012025;28;20472;-78
2023/11/13 11:27:55;;;;;;;5.78;2.13;;;9.60;99.90;;;;;;5010967;28;20423;-79
2023/11/13 11:33:09;;;;;;;9.13;3.58;;;9.60;99.90;;;;;;5118602;22;20427;-75
2023/11/13 11:35:37;;;;;;;;;;;9.60;99.90;;;;;;5111293;28;20081;-77
2023/11/13 11:38:26;;;;;;;7.00;2.78;;;9.60;99.90;;;;;;5110011;28;19904;-77
2023/11/13 11:40:53;;;;;;;3.80;1.90;;;9.50;99.90;;;;;;5110602;28;20043;-78
2023/11/13 11:45:58;;;;;;;3.25;1.98;;;9.50;99.90;;;;;;5110506;27;20533;-78
2023/11/13 11:48:25;;;;;;;5.20;1.85;;;9.50;99.90;;;;;;5111820;28;20169;-79
2023/11/13 11:50:55;;;;;;;4.05;2.33;;;9.50;99.90;;;;;;5110946;28;20016;-77
2023/11/13 11:53:23;;;;;;;4.65;2.58;;;9.50;99.90;;;;;;5101390;28;20048;-75
2023/11/13 11:55:49;;;;;;;7.43;3.05;;;9.50;99.90;;;;;;5111024;28;20028;-76
2023/11/13 11:58:16;;;;;;;4.50;2.67;;;9.40;99.90;;;;;;5109101;28;20015;-77
2023/11/13 12:00:44;;;;;;;5.38;2.65;;;9.40;99.90;;;;;;5105876;28;20376;-77
2023/11/13 12:03:10;;;;;;;6.78;2.70;;;9.40;99.90;;;;;;5092923;28;20047;-77
2023/11/13 12:05:36;;;;;;;6.47;2.50;;;9.40;99.90;;;;;;5086978;28;20480;-78
2023/11/13 12:08:04;;;;;;;8.10;2.95;;;9.40;99.90;;;;;;5100448;28;20030;-78
2023/11/13 12:10:33;;;;;;;5.43;3.00;;;9.50;99.90;;;;;;5102948;28;20465;-77
2023/11/13 12:12:58;;;;;;;6.38;3.47;;;9.50;99.90;;;;;;5098963;28;20401;-77
2023/11/13 12:15:26;;;;;;;5.50;3.45;;;9.50;99.90;;;;;;5108340;28;20043;-77
2023/11/13 12:17:52;;;;;;;6.65;4.10;;;9.50;99.90;;;;;;5089206;28;20486;-77
2023/11/13 12:20:18;;;;;;;7.53;4.13;;;9.50;99.90;;;;;;5087749;28;20103;-76
2023/11/13 12:22:44;;;;;;;6.22;3.00;;;9.50;99.90;;;;;;5088414;28;20497;-78
2023/11/13 12:25:12;;;;;;;6.40;3.58;;;9.50;99.90;;;;;;5087745;28;20077;-76
2023/11/13 12:27:40;;;;;;;6.53;3.60;;;9.50;99.90;;;;;;5095640;28;20030;-76
2023/11/13 12:30:16;;;;;;;4.20;3.30;;;9.50;99.90;;;;;;5088051;28;20480;-78
2023/11/13 12:32:44;;;;;;;4.63;3.38;;;9.60;99.90;;;;;;5085116;28;20032;-76
2023/11/13 12:35:11;;;;;;;3.80;3.00;;;9.60;99.90;;;;;;5088757;28;20036;-76
2023/11/13 12:37:39;;;;;;;9.77;3.28;;;9.60;99.90;;;;;;5095698;28;20394;-77
2023/11/13 12:40:05;;;;;;;8.52;3.63;;;9.60;99.90;;;;;;5101404;28;20050;-76
2023/11/13 12:42:34;;;;;;;7.10;4.28;;;9.60;99.90;;;;;;5089403;28;20462;-78
2023/11/13 12:45:00;;;;;;;7.60;4.05;;;9.70;99.90;;;;;;5088498;28;20569;-78
2023/11/13 12:47:27;;;;;;;7.50;4.15;;;9.70;99.90;;;;;;5088994;28;20115;-78